Time;durP1;ratioP1;P1;durP2;ratioP2;P2;SDS_P1;SDS_P2;PMS_P1;PMS_P2;Temp;Humidity;BMP_temperature;BMP_pressure;BME280_temperature;BME280_humidity;BME280_pressure;Samples;Min_cycle;Max_cycle;Signal;HPM_P1;HPM_P2
2021/11/07 00:01:58;;;;;;;10.82;5.95;;;11.10;80.70;;;;;;5047001;28;20025;-83
2021/11/07 00:04:38;;;;;;;10.15;5.80;;;11.00;80.90;;;;;;5054888;28;20399;-83
2021/11/07 00:09:36;;;;;;;8.27;6.20;;;11.00;81.10;;;;;;5065927;28;20028;-83
2021/11/07 00:12:13;;;;;;;13.23;6.32;;;11.00;81.10;;;;;;5055044;28;20026;-83
2021/11/07 00:14:39;;;;;;;7.57;5.38;;;10.90;81.30;;;;;;5054976;28;20025;-83
2021/11/07 00:17:05;;;;;;;9.02;5.80;;;11.00;81.10;;;;;;5040558;28;20033;-81
2021/11/07 00:19:36;;;;;;;7.80;5.03;;;10.90;81.20;;;;;;5033840;28;20033;-83
2021/11/07 00:29:56;;;;;;;8.50;5.05;;;10.80;81.60;;;;;;5035085;28;20087;-82
2021/11/07 00:37:35;;;;;;;8.88;4.15;;;10.90;81.50;;;;;;5056405;28;20545;-83
2021/11/07 00:40:29;;;;;;;6.70;4.18;;;10.90;81.30;;;;;;5058724;28;20107;-83
2021/11/07 00:48:17;;;;;;;4.32;3.30;;;11.00;81.20;;;;;;5039035;28;19905;-82
2021/11/07 00:56:30;;;;;;;6.68;3.80;;;11.20;81.20;;;;;;5038081;28;20140;-82
2021/11/07 01:01:38;;;;;;;5.93;3.85;;;11.20;81.20;;;;;;5040930;28;20048;-82
2021/11/07 01:04:05;;;;;;;7.00;3.40;;;11.20;81.10;;;;;;5038313;28;20083;-82
2021/11/07 01:06:32;;;;;;;3.60;2.72;;;11.30;81.10;;;;;;5046843;28;20059;-82
2021/11/07 01:08:58;;;;;;;5.13;3.38;;;11.20;81.10;;;;;;5076878;28;20024;-83
2021/11/07 01:11:24;;;;;;;3.35;2.78;;;11.30;81.10;;;;;;5053713;28;20089;-83
2021/11/07 01:13:50;;;;;;;4.38;2.40;;;11.30;81.30;;;;;;5038152;28;20025;-82
2021/11/07 01:16:17;;;;;;;5.45;2.70;;;11.30;81.30;;;;;;5036975;28;20041;-83
2021/11/07 01:18:43;;;;;;;4.35;2.95;;;11.40;81.10;;;;;;5048067;28;20097;-83
2021/11/07 01:21:12;;;;;;;5.22;2.80;;;11.30;81.20;;;;;;5056020;28;20503;-82
2021/11/07 01:23:45;;;;;;;6.70;3.15;;;11.30;81.30;;;;;;5037987;28;20452;-83
2021/11/07 01:26:36;;;;;;;3.22;2.35;;;11.40;81.10;;;;;;5037492;28;20029;-82
2021/11/07 01:29:06;;;;;;;5.28;2.50;;;11.30;81.40;;;;;;5037487;28;20056;-83
2021/11/07 01:31:33;;;;;;;4.47;2.70;;;11.40;81.20;;;;;;5037782;28;20024;-82
2021/11/07 01:34:14;;;;;;;4.47;2.80;;;11.50;81.20;;;;;;5037785;28;20057;-82
2021/11/07 01:36:45;;;;;;;3.28;2.30;;;11.40;81.30;;;;;;5036489;28;20053;-83
2021/11/07 01:39:33;;;;;;;4.00;2.42;;;11.50;81.10;;;;;;5037813;28;20035;-83
2021/11/07 01:42:04;;;;;;;6.10;2.58;;;11.50;81.20;;;;;;5037557;28;20072;-82
2021/11/07 01:44:45;;;;;;;3.70;2.08;;;11.50;81.20;;;;;;5037246;28;20572;-83
2021/11/07 01:47:12;;;;;;;3.47;2.40;;;11.50;81.20;;;;;;5037487;28;20041;-83
2021/11/07 01:49:39;;;;;;;5.60;2.53;;;11.50;81.30;;;;;;5052393;28;20561;-82
2021/11/07 01:52:08;;;;;;;5.10;2.20;;;11.40;81.40;;;;;;5052724;28;20022;-83
2021/11/07 01:54:47;;;;;;;2.95;2.17;;;11.40;81.40;;;;;;5037392;28;20080;-83
2021/11/07 01:57:18;;;;;;;4.07;2.33;;;11.50;81.30;;;;;;5037463;28;20032;-83
2021/11/07 01:59:46;;;;;;;4.18;2.72;;;11.50;81.50;;;;;;5036063;28;20284;-83
2021/11/07 02:02:13;;;;;;;5.53;2.95;;;11.60;81.30;;;;;;5036937;28;20448;-83
2021/11/07 02:04:43;;;;;;;6.03;2.67;;;11.50;81.40;;;;;;5037323;28;20068;-83
2021/11/07 02:07:09;;;;;;;5.57;2.58;;;11.60;81.30;;;;;;5056243;28;20054;-82
2021/11/07 02:09:36;;;;;;;3.83;2.03;;;11.60;81.30;;;;;;5077080;28;20483;-83
2021/11/07 02:12:03;;;;;;;4.45;2.72;;;11.50;81.60;;;;;;5052427;28;20033;-83
2021/11/07 02:14:30;;;;;;;5.13;2.70;;;11.60;81.30;;;;;;5036658;28;20101;-83
2021/11/07 02:16:55;;;;;;;8.25;2.70;;;11.70;81.50;;;;;;5052598;28;20130;-83
2021/11/07 02:19:45;;;;;;;4.10;2.53;;;11.60;81.50;;;;;;5037024;28;20018;-81
2021/11/07 02:22:12;;;;;;;5.25;2.60;;;11.70;81.60;;;;;;5052340;28;20407;-83
2021/11/07 02:24:39;;;;;;;3.13;2.47;;;11.70;81.40;;;;;;5041773;28;20079;-83
2021/11/07 02:27:06;;;;;;;5.45;2.95;;;11.70;81.40;;;;;;5045880;28;20040;-83
2021/11/07 02:29:33;;;;;;;3.72;2.28;;;11.70;81.50;;;;;;5036760;28;20049;-83
2021/11/07 02:31:59;;;;;;;3.42;2.28;;;11.70;81.90;;;;;;5036695;28;20032;-83
2021/11/07 02:34:28;;;;;;;7.93;2.95;;;11.70;81.90;;;;;;5036933;28;20030;-83
2021/11/07 02:36:56;;;;;;;5.05;2.22;;;11.80;81.90;;;;;;5036833;28;20056;-83
2021/11/07 02:39:24;;;;;;;3.30;2.33;;;11.80;82.00;;;;;;5036720;28;20041;-83
2021/11/07 02:41:50;;;;;;;5.32;2.45;;;11.70;82.50;;;;;;5036358;28;20029;-83
2021/11/07 02:44:35;;;;;;;3.95;2.25;;;11.70;82.70;;;;;;5036469;28;20035;-83
2021/11/07 02:47:03;;;;;;;3.70;2.45;;;11.70;82.80;;;;;;5036607;28;20109;-83
2021/11/07 02:49:29;;;;;;;2.72;2.40;;;11.70;82.80;;;;;;5040625;28;20432;-83
2021/11/07 02:51:57;;;;;;;4.15;2.38;;;11.70;83.10;;;;;;5043672;28;20030;-83
2021/11/07 02:54:23;;;;;;;4.38;2.20;;;11.70;83.10;;;;;;5036521;28;20046;-83
2021/11/07 02:56:50;;;;;;;5.45;2.50;;;11.70;83.60;;;;;;5037229;28;20037;-83
2021/11/07 02:59:39;;;;;;;3.63;2.35;;;11.70;83.30;;;;;;5037010;28;20025;-83
2021/11/07 03:02:06;;;;;;;3.97;2.17;;;11.70;83.40;;;;;;5036709;28;20017;-83
2021/11/07 03:04:33;;;;;;;5.78;2.50;;;11.70;83.70;;;;;;5036301;28;20017;-83
2021/11/07 03:07:00;;;;;;;3.97;2.03;;;11.60;83.80;;;;;;5044529;28;20025;-83
2021/11/07 03:09:31;;;;;;;3.63;2.30;;;11.60;84.20;;;;;;5054976;28;20048;-83
2021/11/07 03:11:57;;;;;;;6.35;2.67;;;11.60;84.40;;;;;;5048004;28;20057;-82
2021/11/07 03:14:31;;;;;;;3.72;2.25;;;11.60;84.40;;;;;;5035930;28;20079;-83
2021/11/07 03:16:58;;;;;;;6.45;2.60;;;11.70;84.40;;;;;;5035832;28;20427;-82
2021/11/07 03:19:26;;;;;;;7.00;2.28;;;11.70;84.40;;;;;;5035994;28;20010;-83
2021/11/07 03:21:55;;;;;;;4.55;2.50;;;11.70;84.10;;;;;;5035935;28;20060;-83
2021/11/07 03:24:22;;;;;;;5.93;2.55;;;11.70;84.60;;;;;;5035737;28;20021;-83
2021/11/07 03:26:48;;;;;;;5.63;2.75;;;11.60;85.00;;;;;;5034819;28;20112;-82
2021/11/07 03:29:16;;;;;;;4.13;2.50;;;11.50;85.20;;;;;;5035885;28;20025;-83
2021/11/07 03:31:56;;;;;;;3.53;1.92;;;11.60;85.30;;;;;;5035580;28;20108;-83
2021/11/07 03:36:59;;;;;;;4.13;2.35;;;11.50;85.40;;;;;;5035683;28;20029;-83
2021/11/07 03:39:31;;;;;;;5.18;2.90;;;11.60;85.40;;;;;;5035683;28;20021;-83
2021/11/07 03:41:59;;;;;;;3.58;2.53;;;11.70;85.50;;;;;;5035414;28;20060;-83
2021/11/07 03:44:24;;;;;;;6.30;2.40;;;11.70;85.40;;;;;;5035486;28;20017;-83
2021/11/07 03:46:53;;;;;;;9.18;2.88;;;11.70;85.10;;;;;;5035228;28;20376;-83
2021/11/07 03:49:19;;;;;;;4.32;2.47;;;11.70;85.50;;;;;;5055407;28;20017;-84
2021/11/07 03:51:46;;;;;;;4.78;2.58;;;11.70;85.20;;;;;;5055450;28;20032;-83
2021/11/07 03:54:14;;;;;;;5.45;2.53;;;11.80;85.00;;;;;;5042905;28;20046;-83
2021/11/07 03:56:48;;;;;;;6.00;2.92;;;11.80;85.20;;;;;;5035436;28;20036;-83
2021/11/07 03:59:14;;;;;;;5.28;2.92;;;11.80;85.10;;;;;;5046731;28;20519;-83
2021/11/07 04:01:40;;;;;;;5.30;2.92;;;11.80;85.20;;;;;;5055216;28;20056;-83
2021/11/07 04:04:07;;;;;;;5.60;2.88;;;11.80;85.20;;;;;;5055140;28;20403;-83
2021/11/07 04:06:34;;;;;;;5.07;2.88;;;11.80;85.20;;;;;;5055174;28;20394;-83
2021/11/07 04:09:00;;;;;;;4.38;2.83;;;11.90;85.00;;;;;;5075406;28;20048;-83
2021/11/07 04:11:27;;;;;;;6.70;3.20;;;11.90;85.00;;;;;;5076785;28;20032;-82
2021/11/07 04:13:55;;;;;;;6.95;2.60;;;11.90;84.60;;;;;;5079348;28;20017;-83
2021/11/07 04:16:21;;;;;;;8.88;3.00;;;12.00;84.70;;;;;;5056724;28;20034;-83
2021/11/07 04:18:47;;;;;;;5.72;3.00;;;12.00;84.60;;;;;;5039264;28;20025;-83
2021/11/07 04:21:14;;;;;;;5.43;2.72;;;12.00;84.80;;;;;;5039234;28;20125;-82
2021/11/07 04:23:40;;;;;;;5.45;2.97;;;12.00;84.50;;;;;;5038929;28;20403;-83
2021/11/07 04:26:06;;;;;;;7.95;2.75;;;12.10;84.40;;;;;;5039012;28;20112;-82
2021/11/07 04:28:32;;;;;;;9.00;2.85;;;12.10;84.30;;;;;;5039104;28;20542;-83
2021/11/07 04:30:58;;;;;;;4.65;2.90;;;12.00;84.00;;;;;;5039095;28;20029;-82
2021/11/07 04:33:24;;;;;;;3.88;2.38;;;12.10;84.20;;;;;;5039129;28;20024;-83
2021/11/07 04:35:51;;;;;;;6.10;2.60;;;12.10;84.40;;;;;;5038908;28;20053;-83
2021/11/07 04:38:18;;;;;;;5.20;2.95;;;12.10;84.70;;;;;;5038807;28;20026;-83
2021/11/07 04:40:45;;;;;;;7.30;2.70;;;12.10;84.30;;;;;;5038926;28;20091;-83
2021/11/07 04:43:11;;;;;;;4.25;2.03;;;12.10;84.50;;;;;;5054372;28;20040;-83
2021/11/07 04:45:37;;;;;;;4.50;2.50;;;12.10;84.60;;;;;;5058662;28;20814;-83
2021/11/07 04:48:05;;;;;;;5.05;3.00;;;12.10;84.40;;;;;;5048876;28;20025;-83
2021/11/07 04:50:36;;;;;;;4.25;2.40;;;12.10;84.90;;;;;;5037404;28;20025;-83
2021/11/07 04:53:24;;;;;;;6.15;2.42;;;12.20;84.90;;;;;;5038683;28;20022;-83
2021/11/07 04:55:50;;;;;;;4.32;2.67;;;12.10;85.10;;;;;;5038419;28;20127;-83
2021/11/07 04:58:17;;;;;;;3.92;2.40;;;12.10;85.30;;;;;;5038638;28;20034;-81
2021/11/07 05:00:43;;;;;;;5.07;2.95;;;12.00;85.30;;;;;;5038388;28;20025;-82
2021/11/07 05:03:10;;;;;;;5.85;3.03;;;12.00;85.10;;;;;;5038380;28;20021;-83
2021/11/07 05:05:37;;;;;;;6.82;3.38;;;12.10;85.40;;;;;;5038303;28;20029;-83
2021/11/07 05:08:03;;;;;;;5.72;2.90;;;12.10;85.50;;;;;;5072120;28;20364;-83
2021/11/07 05:10:29;;;;;;;5.78;2.78;;;12.20;85.60;;;;;;5041091;28;20369;-83
2021/11/07 05:12:54;;;;;;;9.20;2.95;;;12.20;85.20;;;;;;5036915;28;20048;-83
2021/11/07 05:15:20;;;;;;;6.63;2.92;;;12.20;85.60;;;;;;5038103;28;20025;-83
2021/11/07 05:17:46;;;;;;;4.45;2.58;;;12.10;85.60;;;;;;5038162;28;20057;-83
2021/11/07 05:20:13;;;;;;;3.90;2.05;;;12.20;85.60;;;;;;5038181;28;20026;-83
2021/11/07 05:22:39;;;;;;;7.35;3.28;;;12.10;85.80;;;;;;5037431;28;20037;-83
2021/11/07 05:25:07;;;;;;;6.45;2.83;;;12.10;85.80;;;;;;5037923;28;20033;-82
2021/11/07 05:27:39;;;;;;;4.60;2.75;;;12.20;85.60;;;;;;5036725;28;20033;-82
2021/11/07 05:30:09;;;;;;;5.88;2.60;;;12.20;85.40;;;;;;5037926;28;20510;-83
2021/11/07 05:32:35;;;;;;;;;;;12.20;85.50;;;;;;5037961;28;20527;-83
2021/11/07 05:35:01;;;;;;;5.13;2.60;;;12.30;85.60;;;;;;5036795;28;19909;-83
2021/11/07 05:37:27;;;;;;;6.07;2.80;;;12.30;85.60;;;;;;5037947;28;20029;-83
2021/11/07 05:39:53;;;;;;;7.90;3.00;;;12.30;85.40;;;;;;5037489;28;20365;-83
2021/11/07 05:42:20;;;;;;;5.68;3.10;;;12.20;85.70;;;;;;5037747;28;20033;-83
2021/11/07 05:44:48;;;;;;;7.05;2.65;;;12.20;85.70;;;;;;5037530;28;20037;-83
2021/11/07 05:47:14;;;;;;;4.05;2.47;;;12.20;86.00;;;;;;5037769;28;20018;-83
2021/11/07 05:49:40;;;;;;;3.83;2.30;;;12.30;85.90;;;;;;5037800;28;20067;-81
2021/11/07 05:52:07;;;;;;;6.38;3.03;;;12.30;85.80;;;;;;5037638;28;20025;-83
2021/11/07 05:54:33;;;;;;;4.80;2.88;;;12.30;85.90;;;;;;5037385;28;20037;-83
2021/11/07 05:57:00;;;;;;;5.95;2.45;;;12.20;86.30;;;;;;5037438;28;20484;-82
2021/11/07 05:59:28;;;;;;;7.00;2.72;;;12.20;86.40;;;;;;5037024;28;20022;-83
2021/11/07 06:01:54;;;;;;;6.13;3.03;;;12.30;86.30;;;;;;5037302;28;20025;-82
2021/11/07 06:04:20;;;;;;;4.80;3.33;;;12.30;86.40;;;;;;5051150;28;20033;-83
2021/11/07 06:06:46;;;;;;;6.13;3.67;;;12.30;86.20;;;;;;5057559;28;20093;-83
2021/11/07 06:09:12;;;;;;;5.70;3.20;;;12.30;86.20;;;;;;5037202;28;20045;-82
2021/11/07 06:11:38;;;;;;;4.90;3.33;;;12.30;86.50;;;;;;5036827;28;20110;-82
2021/11/07 06:14:04;;;;;;;4.72;3.00;;;12.30;86.50;;;;;;5037188;28;20491;-83
2021/11/07 06:16:30;;;;;;;5.85;3.22;;;12.30;86.30;;;;;;5037068;28;20491;-83
2021/11/07 06:18:58;;;;;;;6.07;3.40;;;12.30;86.10;;;;;;5037025;28;20033;-83
2021/11/07 06:21:24;;;;;;;13.18;4.80;;;12.40;86.00;;;;;;5036998;28;20029;-83
2021/11/07 06:23:50;;;;;;;10.38;3.67;;;12.40;85.90;;;;;;5036698;28;20083;-82
2021/11/07 06:26:16;;;;;;;6.90;3.17;;;12.40;85.80;;;;;;5037164;28;20029;-83
2021/11/07 06:28:42;;;;;;;7.47;2.95;;;12.40;86.00;;;;;;5035505;28;20045;-83
2021/11/07 06:31:09;;;;;;;8.65;3.55;;;12.40;86.10;;;;;;5035337;28;20492;-83
2021/11/07 06:33:36;;;;;;;9.07;3.30;;;12.40;86.20;;;;;;5036738;28;20080;-83
2021/11/07 06:36:05;;;;;;;5.35;2.75;;;12.40;86.20;;;;;;5035673;28;20029;-82
2021/11/07 06:38:32;;;;;;;5.32;2.25;;;12.50;86.00;;;;;;5036824;28;20029;-83
2021/11/07 06:40:58;;;;;;;5.30;3.15;;;12.50;86.10;;;;;;5035195;28;20441;-83
2021/11/07 06:43:24;;;;;;;4.28;2.40;;;12.40;86.50;;;;;;5036518;28;20590;-83
2021/11/07 06:45:50;;;;;;;4.88;2.80;;;12.50;86.50;;;;;;5036245;28;20025;-83
2021/11/07 06:48:15;;;;;;;4.25;2.53;;;12.50;86.30;;;;;;5036588;28;20144;-83
2021/11/07 06:50:41;;;;;;;5.60;2.22;;;12.50;86.50;;;;;;5036400;28;20302;-83
2021/11/07 06:53:09;;;;;;;5.28;2.72;;;12.50;86.30;;;;;;5036338;28;20025;-83
2021/11/07 06:55:35;;;;;;;4.38;2.47;;;12.60;86.10;;;;;;5036019;28;20045;-83
2021/11/07 06:58:01;;;;;;;5.78;2.20;;;12.60;86.10;;;;;;5036248;28;20072;-83
2021/11/07 07:00:27;;;;;;;3.17;2.35;;;12.70;86.00;;;;;;5036029;28;20029;-83
2021/11/07 07:02:53;;;;;;;3.08;2.10;;;12.70;85.80;;;;;;5033854;28;20033;-83
2021/11/07 07:05:20;;;;;;;7.38;2.25;;;12.70;85.90;;;;;;5032492;28;20079;-83
2021/11/07 07:07:51;;;;;;;4.32;1.67;;;12.80;85.80;;;;;;5041662;28;20040;-82
2021/11/07 07:10:28;;;;;;;3.95;1.77;;;12.80;85.60;;;;;;5035988;28;20033;-83
2021/11/07 07:13:07;;;;;;;3.58;1.98;;;12.70;86.00;;;;;;5034734;28;20029;-82
2021/11/07 07:15:55;;;;;;;;;;;;;;;;;;;;;
2021/11/07 07:18:36;;;;;;;2.92;1.85;;;12.80;85.90;;;;;;5036662;28;20085;-84
2021/11/07 07:24:22;;;;;;;4.60;1.65;;;12.80;85.70;;;;;;5046121;28;20021;-85
2021/11/07 07:26:52;;;;;;;3.50;1.65;;;12.90;85.60;;;;;;5054267;28;20033;-84
2021/11/07 07:34:41;;;;;;;2.35;1.55;;;13.00;85.60;;;;;;5035578;28;20018;-84
2021/11/07 07:37:07;;;;;;;3.70;1.90;;;13.00;85.60;;;;;;5035671;28;20029;-84
2021/11/07 07:39:33;;;;;;;3.83;1.77;;;13.00;85.70;;;;;;5035550;28;20477;-79
2021/11/07 07:41:59;;;;;;;4.45;1.70;;;13.10;85.70;;;;;;5035558;28;20026;-82
2021/11/07 07:44:25;;;;;;;3.50;1.80;;;13.00;85.80;;;;;;5035663;28;20030;-72
2021/11/07 07:46:50;;;;;;;3.63;1.77;;;13.00;86.10;;;;;;5035003;28;20075;-82
2021/11/07 07:49:18;;;;;;;3.35;1.60;;;13.00;85.90;;;;;;5033900;28;20045;-84
2021/11/07 07:51:45;;;;;;;4.88;2.60;;;13.00;85.80;;;;;;5035466;28;20502;-82
2021/11/07 07:54:11;;;;;;;6.40;2.45;;;13.10;85.90;;;;;;5036483;28;20057;-82
2021/11/07 07:56:46;;;;;;;5.18;2.03;;;13.10;86.00;;;;;;5035616;28;20049;-85
2021/11/07 07:59:12;;;;;;;4.45;2.28;;;13.20;85.90;;;;;;5045773;28;20529;-85
2021/11/07 08:01:38;;;;;;;5.32;2.30;;;13.30;85.70;;;;;;5042481;28;20065;-87
2021/11/07 08:04:04;;;;;;;4.72;2.60;;;13.30;85.70;;;;;;5043980;28;20033;-86
2021/11/07 08:06:30;;;;;;;6.28;2.53;;;13.30;85.60;;;;;;5059504;28;20028;-81
2021/11/07 08:08:57;;;;;;;5.47;2.72;;;13.30;85.70;;;;;;5040445;28;20088;-88
2021/11/07 08:11:23;;;;;;;4.85;2.90;;;13.30;85.90;;;;;;5035751;28;20013;-86
2021/11/07 08:13:53;;;;;;;6.88;3.80;;;13.30;85.70;;;;;;5038524;28;20065;-87
2021/11/07 08:22:11;;;;;;;7.70;3.30;;;12.80;87.20;;;;;;5069543;28;20500;-80
2021/11/07 08:24:40;;;;;;;4.90;3.20;;;13.00;87.00;;;;;;5061146;28;20025;-80
2021/11/07 08:27:07;;;;;;;6.38;3.10;;;13.00;87.20;;;;;;5060770;28;20024;-80
2021/11/07 08:29:40;;;;;;;4.20;2.72;;;13.20;86.90;;;;;;5045592;28;20017;-80
2021/11/07 08:32:06;;;;;;;4.15;2.63;;;13.30;86.60;;;;;;5031962;28;20025;-79
2021/11/07 08:34:34;;;;;;;6.57;3.00;;;13.50;86.40;;;;;;5034248;28;20020;-81
2021/11/07 08:37:06;;;;;;;5.47;2.90;;;13.60;85.80;;;;;;5030971;28;20060;-80
2021/11/07 08:39:40;;;;;;;5.10;2.72;;;13.70;85.50;;;;;;5042512;28;20022;-81
2021/11/07 08:42:14;;;;;;;4.15;2.83;;;13.80;85.50;;;;;;5062587;28;20028;-80
2021/11/07 09:01:26;;;;;;;5.70;2.45;;;14.20;84.30;;;;;;5058056;28;20070;-79
2021/11/07 09:08:45;;;;;;;8.20;2.55;;;14.50;83.70;;;;;;5060393;28;20048;-80
2021/11/07 09:11:12;;;;;;;8.40;2.30;;;14.60;83.40;;;;;;5050148;28;20068;-85
2021/11/07 09:13:38;;;;;;;5.18;2.00;;;14.60;83.40;;;;;;5059775;28;20028;-83
2021/11/07 09:16:06;;;;;;;4.60;2.05;;;14.60;83.40;;;;;;5065412;28;20024;-83
2021/11/07 09:18:33;;;;;;;3.55;2.15;;;14.60;83.40;;;;;;5058275;28;20021;-84
2021/11/07 09:21:17;;;;;;;3.88;1.92;;;14.60;83.60;;;;;;5054993;28;20106;-82
2021/11/07 09:23:48;;;;;;;6.63;3.17;;;14.70;83.40;;;;;;5057507;28;20113;-80
2021/11/07 09:26:30;;;;;;;7.18;2.15;;;14.80;83.40;;;;;;5056494;28;20021;-82
2021/11/07 09:29:01;;;;;;;10.65;3.85;;;14.80;83.40;;;;;;5057087;28;20017;-80
2021/11/07 09:34:22;;;;;;;5.78;2.63;;;14.90;83.00;;;;;;5041380;28;20525;-82
2021/11/07 09:36:55;;;;;;;4.35;1.67;;;15.10;82.70;;;;;;5039585;28;20022;-81
2021/11/07 09:39:47;;;;;;;4.28;1.70;;;15.30;82.10;;;;;;5046442;28;20388;-82
2021/11/07 09:44:54;;;;;;;3.28;1.60;;;15.60;81.40;;;;;;5031669;28;20050;-83
2021/11/07 09:47:20;;;;;;;3.13;1.60;;;15.80;81.20;;;;;;5039518;28;20032;-84
2021/11/07 09:49:48;;;;;;;2.22;1.15;;;15.80;80.40;;;;;;5044939;28;20026;-83
2021/11/07 09:52:26;;;;;;;5.47;1.20;;;15.80;80.20;;;;;;5039258;28;20472;-83
2021/11/07 09:55:01;;;;;;;6.43;1.60;;;15.80;80.00;;;;;;5034799;28;20037;-78
2021/11/07 09:57:28;;;;;;;2.15;1.25;;;15.80;80.00;;;;;;5020583;28;20060;-84
2021/11/07 09:59:58;;;;;;;5.65;1.92;;;15.80;79.60;;;;;;5033889;28;20037;-78
2021/11/07 10:02:28;;;;;;;3.10;1.58;;;15.70;79.60;;;;;;5017040;28;20112;-78
2021/11/07 10:04:57;;;;;;;5.75;1.50;;;15.60;79.80;;;;;;5020827;28;20057;-81
2021/11/07 10:07:28;;;;;;;4.80;1.25;;;15.70;79.60;;;;;;5040019;28;20476;-79
2021/11/07 10:09:58;;;;;;;6.82;1.40;;;15.60;79.10;;;;;;5016117;28;20022;-81
2021/11/07 10:12:45;;;;;;;6.82;1.73;;;15.70;79.20;;;;;;5034787;28;20037;-79
2021/11/07 10:15:28;;;;;;;9.15;1.45;;;15.90;78.60;;;;;;5037272;28;20018;-80
2021/11/07 10:18:07;;;;;;;9.73;1.20;;;15.90;78.60;;;;;;5035281;28;20023;-78
2021/11/07 10:20:47;;;;;;;10.88;1.90;;;15.90;78.10;;;;;;5042416;28;20385;-80
2021/11/07 10:23:26;;;;;;;9.55;2.13;;;15.80;78.10;;;;;;5035075;28;20034;-79
2021/11/07 10:28:44;;;;;;;6.47;1.50;;;15.80;78.30;;;;;;5038452;28;20144;-79
2021/11/07 10:31:13;;;;;;;4.97;1.50;;;15.90;77.80;;;;;;5036722;28;20081;-78
2021/11/07 10:42:30;;;;;;;8.95;1.45;;;16.50;75.00;;;;;;5036388;28;20214;-78
2021/11/07 10:52:46;;;;;;;6.82;2.15;;;16.60;73.30;;;;;;5014750;28;20080;-78
2021/11/07 10:55:18;;;;;;;6.47;1.70;;;16.40;74.80;;;;;;5014632;28;20022;-77
2021/11/07 10:57:51;;;;;;;11.55;2.55;;;16.20;74.30;;;;;;5014679;28;20034;-78
2021/11/07 11:00:39;;;;;;;7.93;2.10;;;16.00;74.30;;;;;;5013629;28;20030;-77
2021/11/07 11:03:08;;;;;;;7.55;2.33;;;15.90;75.30;;;;;;5014700;28;20113;-77
2021/11/07 11:05:55;;;;;;;10.50;2.45;;;15.90;75.00;;;;;;5014399;28;20732;-77
2021/11/07 11:08:32;;;;;;;12.70;3.00;;;16.00;74.90;;;;;;5043244;28;20409;-77
2021/11/07 11:11:13;;;;;;;9.75;2.28;;;16.00;72.40;;;;;;5035852;28;20033;-77
2021/11/07 11:29:50;;;;;;;11.02;1.98;;;16.40;71.80;;;;;;5016302;28;20030;-77
2021/11/07 11:35:05;;;;;;;11.82;2.30;;;16.60;71.80;;;;;;5016092;28;20510;-77
2021/11/07 11:40:11;;;;;;;10.75;2.72;;;16.70;69.90;;;;;;5020544;28;20041;-77
2021/11/07 11:42:56;;;;;;;10.45;2.13;;;16.80;68.40;;;;;;5013968;28;20053;-77
2021/11/07 11:45:27;;;;;;;7.72;2.13;;;16.80;69.60;;;;;;5015736;28;20119;-77
2021/11/07 11:48:07;;;;;;;;;;;16.80;70.00;;;;;;5016209;28;20022;-77
2021/11/07 11:50:48;;;;;;;10.75;2.20;;;16.70;69.50;;;;;;5047528;28;19905;-76
2021/11/07 12:01:08;;;;;;;9.93;2.13;;;16.30;66.30;;;;;;5015550;28;20430;-76
2021/11/07 12:12:04;;;;;;;11.95;4.22;;;16.60;65.00;;;;;;5048773;28;20091;-76
2021/11/07 12:14:50;;;;;;;8.63;2.58;;;16.50;64.10;;;;;;5031688;28;20064;-76
2021/11/07 12:17:35;;;;;;;15.38;2.63;;;16.60;65.10;;;;;;5034431;28;20025;-76
2021/11/07 12:20:20;;;;;;;11.70;3.50;;;16.60;65.80;;;;;;5027610;28;20084;-76
2021/11/07 12:22:45;;;;;;;7.63;2.65;;;16.40;64.90;;;;;;5015315;28;20037;-76
2021/11/07 12:25:13;;;;;;;7.28;1.60;;;16.30;64.30;;;;;;5015335;28;20026;-76
2021/11/07 12:27:54;;;;;;;8.32;2.75;;;16.30;65.60;;;;;;5014948;28;20456;-76
2021/11/07 12:30:28;;;;;;;11.00;3.40;;;16.20;63.70;;;;;;5015238;28;20029;-76
2021/11/07 12:33:11;;;;;;;13.25;4.10;;;16.10;65.60;;;;;;5046191;28;20037;-76
2021/11/07 12:35:49;;;;;;;15.00;3.53;;;16.10;63.70;;;;;;5015020;28;20030;-76
2021/11/07 12:41:11;;;;;;;10.18;3.28;;;16.40;64.70;;;;;;5015424;28;20094;-76
2021/11/07 12:43:40;;;;;;;12.25;2.92;;;16.50;63.70;;;;;;5014999;28;20036;-76
2021/11/07 12:46:24;;;;;;;14.70;4.32;;;16.50;63.50;;;;;;5015094;28;20075;-76
2021/11/07 12:48:56;;;;;;;13.70;4.40;;;16.60;61.90;;;;;;5046881;28;20026;-75
2021/11/07 12:51:32;;;;;;;21.90;4.30;;;16.80;62.10;;;;;;5014868;28;20441;-75
2021/11/07 12:54:07;;;;;;;8.80;2.38;;;16.90;61.90;;;;;;5046575;28;20038;-76
2021/11/07 12:56:38;;;;;;;13.15;2.97;;;16.70;61.20;;;;;;5015048;28;20029;-75
2021/11/07 12:59:11;;;;;;;9.23;2.88;;;16.60;62.30;;;;;;5014797;28;20539;-75
2021/11/07 13:01:58;;;;;;;11.18;2.40;;;16.50;63.70;;;;;;5014904;28;20083;-75
2021/11/07 13:04:27;;;;;;;6.25;1.80;;;16.30;63.60;;;;;;5013890;28;20056;-75
2021/11/07 13:06:55;;;;;;;8.60;2.15;;;16.30;63.90;;;;;;5029785;28;20424;-75
2021/11/07 13:09:26;;;;;;;9.90;2.17;;;16.30;64.40;;;;;;5058148;28;20025;-75
2021/11/07 13:11:56;;;;;;;10.70;2.13;;;16.20;63.30;;;;;;5039392;28;20029;-75
2021/11/07 13:14:48;;;;;;;8.82;1.95;;;16.20;63.80;;;;;;5033915;28;20056;-75
2021/11/07 13:17:34;;;;;;;11.68;3.15;;;16.10;63.50;;;;;;5036827;28;20049;-75
2021/11/07 13:23:39;;;;;;;8.52;2.33;;;16.30;62.90;;;;;;5024992;28;20033;-75
2021/11/07 13:28:37;;;;;;;14.23;2.33;;;16.10;61.40;;;;;;5018588;28;20472;-75
2021/11/07 13:31:13;;;;;;;7.63;1.98;;;16.20;62.30;;;;;;5016816;28;20036;-75
2021/11/07 13:33:41;;;;;;;11.05;2.70;;;16.30;61.90;;;;;;5018145;28;20030;-76
2021/11/07 13:36:10;;;;;;;9.30;2.30;;;16.50;63.10;;;;;;5018061;28;20520;-75
2021/11/07 13:38:44;;;;;;;14.50;2.97;;;16.50;62.10;;;;;;5016850;28;20033;-75
2021/11/07 13:41:18;;;;;;;12.00;2.50;;;16.60;62.10;;;;;;5018148;28;20132;-76
2021/11/07 13:43:56;;;;;;;9.05;2.83;;;16.40;59.50;;;;;;5017457;28;20018;-75
2021/11/07 13:46:21;;;;;;;13.15;3.33;;;16.50;61.90;;;;;;5017820;28;20086;-75
2021/11/07 13:49:03;;;;;;;9.85;1.98;;;16.50;61.40;;;;;;5017930;28;20453;-75
2021/11/07 13:51:30;;;;;;;6.38;1.88;;;16.50;60.40;;;;;;5017947;28;20025;-75
2021/11/07 13:54:02;;;;;;;15.05;2.85;;;16.50;61.40;;;;;;5035034;28;20101;-75
2021/11/07 13:56:28;;;;;;;9.13;2.60;;;16.40;61.20;;;;;;5037479;28;20022;-75
2021/11/07 13:58:54;;;;;;;8.73;2.05;;;16.40;60.40;;;;;;5020300;28;20512;-75
2021/11/07 14:01:19;;;;;;;10.68;2.50;;;16.30;60.30;;;;;;5016192;28;20037;-75
2021/11/07 14:03:51;;;;;;;10.52;1.83;;;16.30;60.30;;;;;;5017330;28;20703;-76
2021/11/07 14:06:23;;;;;;;5.40;1.73;;;16.30;62.00;;;;;;5022096;28;20021;-75
2021/11/07 14:08:49;;;;;;;8.90;2.00;;;16.40;62.10;;;;;;5057347;28;20203;-75
2021/11/07 14:11:19;;;;;;;7.68;1.77;;;16.40;61.50;;;;;;5055270;28;20025;-75
2021/11/07 14:13:50;;;;;;;10.93;2.30;;;16.30;61.30;;;;;;5027479;28;20026;-75
2021/11/07 14:16:28;;;;;;;9.40;1.83;;;16.30;60.20;;;;;;5037048;28;20017;-75
2021/11/07 14:18:54;;;;;;;9.25;2.30;;;16.20;60.80;;;;;;5022419;28;20033;-75
2021/11/07 14:21:25;;;;;;;7.88;2.17;;;16.20;60.90;;;;;;5026271;28;20113;-75
2021/11/07 14:23:57;;;;;;;10.23;1.60;;;16.20;60.70;;;;;;5018181;28;20072;-75
2021/11/07 14:32:07;;;;;;;10.25;1.98;;;16.20;61.00;;;;;;5017360;28;20061;-75
2021/11/07 14:34:46;;;;;;;13.23;2.28;;;16.20;61.90;;;;;;5015803;28;20037;-75
2021/11/07 14:39:54;;;;;;;11.88;2.53;;;16.10;61.60;;;;;;5017189;28;20078;-75
2021/11/07 14:50:43;;;;;;;9.63;2.15;;;15.90;61.40;;;;;;5017100;28;20041;-75
2021/11/07 14:53:51;;;;;;;11.43;2.40;;;16.00;63.40;;;;;;5016432;28;20033;-75
2021/11/07 14:55:58;;;;;;;13.35;2.47;;;16.00;63.10;;;;;;5012675;28;20061;-75
2021/11/07 14:58:40;;;;;;;10.85;2.83;;;15.80;62.70;;;;;;5016665;28;20030;-74
2021/11/07 15:03:55;;;;;;;9.07;2.10;;;15.80;62.80;;;;;;5016949;28;20484;-75
2021/11/07 15:06:33;;;;;;;10.88;2.67;;;15.80;61.90;;;;;;5022342;28;20096;-75
2021/11/07 15:09:06;;;;;;;13.20;3.45;;;15.80;63.10;;;;;;5056244;28;20017;-75
2021/11/07 15:11:52;;;;;;;11.73;3.20;;;15.80;64.20;;;;;;5054779;28;20159;-75
2021/11/07 15:17:27;;;;;;;9.52;2.70;;;15.70;64.20;;;;;;5016477;28;20041;-74
2021/11/07 15:19:59;;;;;;;12.30;3.72;;;15.50;65.00;;;;;;5015976;28;20030;-74
2021/11/07 15:22:46;;;;;;;14.60;6.18;;;15.40;64.60;;;;;;5016373;28;20026;-75
2021/11/07 15:25:13;;;;;;;20.60;8.45;;;15.30;64.60;;;;;;5014513;28;20048;-75
2021/11/07 15:27:39;;;;;;;24.05;10.25;;;15.30;65.00;;;;;;5016310;28;20064;-75
2021/11/07 15:30:14;;;;;;;21.30;8.88;;;15.30;65.60;;;;;;5015553;28;20018;-75
2021/11/07 15:32:42;;;;;;;16.90;4.75;;;15.30;65.70;;;;;;5015704;28;20034;-74
2021/11/07 15:35:25;;;;;;;11.70;3.67;;;15.30;65.90;;;;;;5014119;28;20555;-75
2021/11/07 15:37:52;;;;;;;10.93;2.67;;;15.30;65.80;;;;;;5015920;28;20030;-75
2021/11/07 15:40:30;;;;;;;7.95;2.65;;;15.30;66.00;;;;;;5030261;28;20463;-75
2021/11/07 15:42:57;;;;;;;12.95;2.55;;;15.30;66.50;;;;;;5035570;28;20044;-75
2021/11/07 15:45:24;;;;;;;17.77;2.88;;;15.30;67.10;;;;;;5024421;28;20034;-75